Time;durP1;ratioP1;P1;durP2;ratioP2;P2;SDS_P1;SDS_P2;PMS_P1;PMS_P2;Temp;Humidity;BMP_temperature;BMP_pressure;BME280_temperature;BME280_humidity;BME280_pressure;Samples;Min_cycle;Max_cycle;Signal;HPM_P1;HPM_P2
2023/10/28 00:01:15;;;;;;;1.70;1.23;;;20.40;52.80;;;;;;5071341;28;20028;-58
2023/10/28 00:03:42;;;;;;;1.83;1.20;;;20.40;52.80;;;;;;5061996;28;20028;-54
2023/10/28 00:06:08;;;;;;;2.22;1.30;;;20.40;52.90;;;;;;5069770;28;20356;-57
2023/10/28 00:08:35;;;;;;;2.17;1.33;;;20.40;52.80;;;;;;5069509;28;20039;-57
2023/10/28 00:11:01;;;;;;;1.65;1.08;;;20.40;52.80;;;;;;5066838;28;20046;-58
2023/10/28 00:13:27;;;;;;;3.47;1.20;;;20.30;52.80;;;;;;5065660;28;20025;-57
2023/10/28 00:15:53;;;;;;;2.03;1.33;;;20.30;52.80;;;;;;5061959;28;20033;-59
2023/10/28 00:18:18;;;;;;;1.83;1.05;;;20.30;52.80;;;;;;5072220;28;20064;-55
2023/10/28 00:20:45;;;;;;;1.67;1.30;;;20.30;52.80;;;;;;5075639;28;20024;-57
2023/10/28 00:23:13;;;;;;;2.47;1.25;;;20.30;52.80;;;;;;5068106;28;20032;-57
2023/10/28 00:25:40;;;;;;;3.47;1.30;;;20.30;52.80;;;;;;5061443;28;20032;-54
2023/10/28 00:28:05;;;;;;;2.35;1.33;;;20.30;52.90;;;;;;5061471;28;20025;-58
2023/10/28 00:30:31;;;;;;;2.88;1.30;;;20.30;52.90;;;;;;5066987;28;20040;-52
2023/10/28 00:32:58;;;;;;;3.75;1.30;;;20.30;52.90;;;;;;5066577;28;20028;-59
2023/10/28 00:35:25;;;;;;;2.13;1.02;;;20.30;52.90;;;;;;5064251;28;20060;-56
2023/10/28 00:37:52;;;;;;;1.98;0.90;;;20.30;52.90;;;;;;5068713;28;20043;-57
2023/10/28 00:40:18;;;;;;;3.50;1.55;;;20.30;52.90;;;;;;5041546;28;20033;-55
2023/10/28 00:42:45;;;;;;;2.67;1.20;;;20.30;52.90;;;;;;5039528;28;20500;-53
2023/10/28 00:45:13;;;;;;;2.78;1.23;;;20.30;52.90;;;;;;5070891;28;20355;-57
2023/10/28 00:47:42;;;;;;;2.88;1.10;;;20.30;52.90;;;;;;5059875;28;20090;-57
2023/10/28 00:50:10;;;;;;;1.88;0.90;;;20.30;52.80;;;;;;5067125;28;20042;-57
2023/10/28 00:52:44;;;;;;;1.95;1.00;;;20.30;52.90;;;;;;5055283;28;20104;-55
2023/10/28 00:55:12;;;;;;;3.00;1.25;;;20.30;52.80;;;;;;5075185;28;20021;-59
2023/10/28 00:57:42;;;;;;;2.17;1.38;;;20.30;52.90;;;;;;5045073;28;20055;-53
2023/10/28 01:00:10;;;;;;;2.00;1.10;;;20.30;52.90;;;;;;5062596;28;20047;-55
2023/10/28 01:02:38;;;;;;;2.00;1.13;;;20.20;53.40;;;;;;5079507;28;20044;-56
2023/10/28 01:05:06;;;;;;;1.52;0.90;;;20.20;52.90;;;;;;5069438;28;20028;-54
2023/10/28 01:07:33;;;;;;;2.30;1.20;;;20.20;52.90;;;;;;5051177;28;20111;-56
2023/10/28 01:09:59;;;;;;;2.20;1.33;;;20.20;52.90;;;;;;5067281;28;20037;-57
2023/10/28 01:12:26;;;;;;;1.38;0.98;;;20.20;52.90;;;;;;5072821;28;20025;-57
2023/10/28 01:14:53;;;;;;;2.53;1.20;;;20.20;52.90;;;;;;5052838;28;20116;-55
2023/10/28 01:17:25;;;;;;;2.30;1.23;;;20.20;52.90;;;;;;5053632;28;20067;-53
2023/10/28 01:19:54;;;;;;;3.10;1.30;;;20.20;52.90;;;;;;5078122;28;20375;-56
2023/10/28 01:22:21;;;;;;;2.55;1.58;;;20.20;52.90;;;;;;5084721;28;20047;-55
2023/10/28 01:24:49;;;;;;;2.85;1.20;;;20.20;52.90;;;;;;5068438;28;20032;-56
2023/10/28 01:27:15;;;;;;;2.53;1.00;;;20.20;52.90;;;;;;5069202;28;20032;-57
2023/10/28 01:29:41;;;;;;;1.50;0.88;;;20.20;53.00;;;;;;5071062;28;20086;-56
2023/10/28 01:32:07;;;;;;;1.58;1.13;;;20.20;53.00;;;;;;5050746;28;20068;-58
2023/10/28 01:34:46;;;;;;;2.85;0.90;;;20.20;53.00;;;;;;5066894;28;20435;-54
2023/10/28 01:37:12;;;;;;;1.40;0.90;;;20.20;53.00;;;;;;5072731;28;20094;-56
2023/10/28 01:39:38;;;;;;;1.58;0.80;;;20.20;53.00;;;;;;5050312;28;20079;-54
2023/10/28 01:42:04;;;;;;;2.28;0.90;;;20.20;53.10;;;;;;5069105;28;20060;-54
2023/10/28 01:44:34;;;;;;;2.28;0.88;;;20.20;53.00;;;;;;5070013;28;20033;-55
2023/10/28 01:47:01;;;;;;;1.63;0.90;;;20.10;53.00;;;;;;5054176;28;20069;-51
2023/10/28 01:49:27;;;;;;;2.65;1.17;;;20.10;53.00;;;;;;5068986;28;20443;-58
2023/10/28 01:51:54;;;;;;;1.70;1.00;;;20.10;53.00;;;;;;5063304;28;20021;-58
2023/10/28 01:54:20;;;;;;;2.20;0.93;;;20.10;53.10;;;;;;5069358;28;20024;-58
2023/10/28 01:56:46;;;;;;;2.35;1.00;;;20.20;53.10;;;;;;5055682;28;20451;-55
2023/10/28 01:59:12;;;;;;;1.88;0.98;;;20.20;53.10;;;;;;5059489;28;20362;-60
2023/10/28 02:01:38;;;;;;;2.38;1.20;;;20.10;53.10;;;;;;5048842;28;20410;-59
2023/10/28 02:04:06;;;;;;;1.13;0.75;;;20.10;53.10;;;;;;5073055;28;20048;-59
2023/10/28 02:06:32;;;;;;;2.05;0.90;;;20.10;53.10;;;;;;5068958;28;20056;-58
2023/10/28 02:08:58;;;;;;;1.85;0.82;;;20.20;53.20;;;;;;5064044;28;20392;-59
2023/10/28 02:11:24;;;;;;;2.13;1.00;;;20.10;53.10;;;;;;5048966;28;20017;-58
2023/10/28 02:13:50;;;;;;;2.53;1.20;;;20.20;53.20;;;;;;5064388;28;20409;-55
2023/10/28 02:16:16;;;;;;;1.38;0.85;;;20.10;53.10;;;;;;5065518;28;20035;-56
2023/10/28 02:18:41;;;;;;;1.90;0.80;;;20.10;53.20;;;;;;5055433;28;20387;-53
2023/10/28 02:21:07;;;;;;;3.45;1.10;;;20.10;53.20;;;;;;5050981;28;20442;-58
2023/10/28 02:23:33;;;;;;;1.85;0.95;;;20.10;53.20;;;;;;5050124;28;20025;-54
2023/10/28 02:25:59;;;;;;;2.10;0.88;;;20.10;53.20;;;;;;5068890;28;20445;-56
2023/10/28 02:28:25;;;;;;;1.52;0.73;;;20.10;53.20;;;;;;5065984;28;20051;-57
2023/10/28 02:30:51;;;;;;;1.77;0.93;;;20.10;53.30;;;;;;5071338;28;20456;-55
2023/10/28 02:33:16;;;;;;;1.42;0.73;;;20.10;53.80;;;;;;5073363;28;20382;-56
2023/10/28 02:35:43;;;;;;;1.80;0.90;;;20.10;53.30;;;;;;5062300;28;20036;-58
2023/10/28 02:38:10;;;;;;;1.77;0.90;;;20.10;53.30;;;;;;5073647;28;20036;-58
2023/10/28 02:40:36;;;;;;;2.42;0.90;;;20.10;53.30;;;;;;5084528;28;20507;-55
2023/10/28 02:43:02;;;;;;;2.08;0.80;;;20.10;53.30;;;;;;5067652;28;20024;-57
2023/10/28 02:45:28;;;;;;;1.60;0.90;;;20.10;53.30;;;;;;5068650;28;20363;-56
2023/10/28 02:47:53;;;;;;;1.65;0.70;;;20.10;53.30;;;;;;5071667;28;20456;-55
2023/10/28 02:50:19;;;;;;;2.15;0.82;;;20.10;53.60;;;;;;5046202;28;20029;-56
2023/10/28 02:52:46;;;;;;;1.88;0.85;;;20.10;53.30;;;;;;5070376;28;20024;-55
2023/10/28 02:55:12;;;;;;;1.88;0.70;;;20.10;53.30;;;;;;5066340;28;20040;-59
2023/10/28 02:57:38;;;;;;;1.58;0.70;;;20.10;53.30;;;;;;5070956;28;20162;-56
2023/10/28 03:00:08;;;;;;;1.30;0.70;;;20.10;53.30;;;;;;5067519;28;20032;-59
2023/10/28 03:02:34;;;;;;;2.00;0.90;;;20.10;53.30;;;;;;5067326;28;20135;-59
2023/10/28 03:05:00;;;;;;;2.03;0.85;;;20.10;53.30;;;;;;5070651;28;20444;-58
2023/10/28 03:07:26;;;;;;;2.40;1.13;;;20.10;53.40;;;;;;5073077;28;20043;-58
2023/10/28 03:09:52;;;;;;;1.80;0.90;;;20.00;53.30;;;;;;5060374;28;20086;-56
2023/10/28 03:12:18;;;;;;;1.30;0.82;;;20.10;53.30;;;;;;5064054;28;20032;-58
2023/10/28 03:14:44;;;;;;;0.60;0.60;;;20.00;53.30;;;;;;5066337;28;20100;-55
2023/10/28 03:17:09;;;;;;;2.22;0.80;;;20.10;53.40;;;;;;5046066;28;20024;-57
2023/10/28 03:19:35;;;;;;;1.63;0.70;;;20.10;53.40;;;;;;5063807;28;20041;-55
2023/10/28 03:22:01;;;;;;;2.33;1.08;;;20.00;53.30;;;;;;5070766;28;20029;-55
2023/10/28 03:24:28;;;;;;;1.80;0.65;;;20.10;53.30;;;;;;5061717;28;20025;-56
2023/10/28 03:26:55;;;;;;;1.95;0.85;;;20.00;53.30;;;;;;5066145;28;20033;-57
2023/10/28 03:29:20;;;;;;;1.83;0.82;;;20.10;53.40;;;;;;5059737;28;20103;-56
2023/10/28 03:31:47;;;;;;;0.60;0.50;;;20.00;53.30;;;;;;5051953;28;20103;-55
2023/10/28 03:34:13;;;;;;;0.85;0.50;;;20.00;53.30;;;;;;5046467;28;20125;-58
2023/10/28 03:36:39;;;;;;;2.05;0.73;;;20.00;53.30;;;;;;5067980;28;20403;-59
2023/10/28 03:39:05;;;;;;;0.70;0.68;;;20.00;53.30;;;;;;5046240;28;20119;-58
2023/10/28 03:41:32;;;;;;;1.65;0.85;;;20.00;53.30;;;;;;5068069;28;20035;-59
2023/10/28 03:43:58;;;;;;;1.45;0.63;;;20.00;53.30;;;;;;5065955;28;20324;-58
2023/10/28 03:46:25;;;;;;;1.73;0.75;;;20.00;54.00;;;;;;5068034;28;20135;-58
2023/10/28 03:48:51;;;;;;;0.70;0.60;;;20.00;53.30;;;;;;5067104;28;20029;-58
2023/10/28 03:51:17;;;;;;;2.08;0.52;;;20.00;53.30;;;;;;5067696;28;20028;-55
2023/10/28 03:53:43;;;;;;;1.08;0.60;;;20.00;53.30;;;;;;5061962;28;20325;-59
2023/10/28 03:56:10;;;;;;;1.33;0.60;;;20.00;53.30;;;;;;5074880;28;20428;-57
2023/10/28 03:58:35;;;;;;;0.65;0.50;;;20.00;53.30;;;;;;5061199;28;20040;-54
2023/10/28 04:01:01;;;;;;;0.80;0.50;;;20.00;53.30;;;;;;5045622;28;20040;-54
2023/10/28 04:03:27;;;;;;;1.00;0.60;;;20.00;53.30;;;;;;5071078;28;20024;-58
2023/10/28 04:05:54;;;;;;;0.95;0.60;;;20.00;53.30;;;;;;5066197;28;20459;-59
2023/10/28 04:08:19;;;;;;;1.83;0.70;;;20.00;53.30;;;;;;5069989;28;20116;-57
2023/10/28 04:10:46;;;;;;;0.82;0.40;;;20.00;53.30;;;;;;5067192;28;20124;-58
2023/10/28 04:13:15;;;;;;;1.35;0.50;;;20.00;53.30;;;;;;5066584;28;20048;-53
2023/10/28 04:15:41;;;;;;;1.05;0.80;;;20.00;53.20;;;;;;5068327;28;20025;-55
2023/10/28 04:18:07;;;;;;;1.20;0.50;;;20.00;53.20;;;;;;5071847;28;20102;-58
2023/10/28 04:20:34;;;;;;;1.23;0.60;;;20.00;53.20;;;;;;5051939;28;20036;-55
2023/10/28 04:23:00;;;;;;;0.52;0.40;;;20.00;53.20;;;;;;5063938;28;20032;-55
2023/10/28 04:25:27;;;;;;;0.90;0.32;;;20.00;53.20;;;;;;5073752;28;20021;-57
2023/10/28 04:27:53;;;;;;;1.25;0.45;;;20.00;53.20;;;;;;5040333;28;20064;-57
2023/10/28 04:30:19;;;;;;;1.20;0.60;;;20.00;53.20;;;;;;5064126;28;20060;-58
2023/10/28 04:32:45;;;;;;;0.45;0.40;;;20.00;53.20;;;;;;5069273;28;20078;-57
2023/10/28 04:35:10;;;;;;;0.90;0.40;;;20.00;53.20;;;;;;5061615;28;20049;-55
2023/10/28 04:37:36;;;;;;;1.33;0.60;;;20.00;53.80;;;;;;5072267;28;20029;-55
2023/10/28 04:40:05;;;;;;;0.85;0.45;;;20.00;53.20;;;;;;5074118;28;20112;-58
2023/10/28 04:42:32;;;;;;;1.20;0.45;;;20.00;53.20;;;;;;5069723;28;20115;-56
2023/10/28 04:44:57;;;;;;;0.95;0.50;;;20.00;53.20;;;;;;5061990;28;20040;-55
2023/10/28 04:47:26;;;;;;;0.95;0.40;;;19.90;53.10;;;;;;5070614;28;20085;-57
2023/10/28 04:49:52;;;;;;;0.60;0.40;;;19.90;53.10;;;;;;5065286;28;20451;-56
2023/10/28 04:52:17;;;;;;;1.08;0.50;;;20.00;53.80;;;;;;5066952;28;20052;-56
2023/10/28 04:54:43;;;;;;;1.17;0.35;;;19.90;53.10;;;;;;5065454;28;20060;-56
2023/10/28 04:57:09;;;;;;;1.83;0.60;;;20.00;53.10;;;;;;5069238;28;20932;-59
2023/10/28 04:59:35;;;;;;;0.75;0.30;;;20.00;53.10;;;;;;5068174;28;20052;-56
2023/10/28 05:02:01;;;;;;;1.55;0.65;;;19.90;53.10;;;;;;5079449;28;20020;-55
2023/10/28 05:04:27;;;;;;;0.80;0.40;;;19.90;53.10;;;;;;5074824;28;20020;-57
2023/10/28 05:06:53;;;;;;;1.60;0.60;;;19.90;53.10;;;;;;5066795;28;20032;-59
2023/10/28 05:09:20;;;;;;;0.55;0.40;;;19.90;53.10;;;;;;5069379;28;20165;-57
2023/10/28 05:11:56;;;;;;;0.57;0.40;;;19.90;53.00;;;;;;5067905;28;20056;-56
2023/10/28 05:14:23;;;;;;;1.88;0.80;;;19.90;53.00;;;;;;5063728;28;20418;-55
2023/10/28 05:16:50;;;;;;;0.50;0.40;;;19.90;53.00;;;;;;5063521;28;20032;-55
2023/10/28 05:19:18;;;;;;;0.40;0.40;;;19.90;53.00;;;;;;5067171;28;20316;-56
2023/10/28 05:21:44;;;;;;;0.40;0.40;;;19.90;53.00;;;;;;5065278;28;20028;-55
2023/10/28 05:24:10;;;;;;;0.95;0.30;;;19.90;53.00;;;;;;5074525;28;20017;-56
2023/10/28 05:26:37;;;;;;;0.40;0.30;;;19.90;53.00;;;;;;5073013;28;20347;-57
2023/10/28 05:29:03;;;;;;;0.98;0.55;;;19.90;53.60;;;;;;5069051;28;20118;-57
2023/10/28 05:31:29;;;;;;;1.13;0.40;;;19.90;53.00;;;;;;5080134;28;20405;-58
2023/10/28 05:33:55;;;;;;;1.13;0.55;;;19.90;53.00;;;;;;5081288;28;20384;-58
2023/10/28 05:36:22;;;;;;;1.48;0.50;;;19.90;53.00;;;;;;5060325;28;20120;-56
2023/10/28 05:38:48;;;;;;;1.00;0.50;;;19.90;53.00;;;;;;5067695;28;20045;-58
2023/10/28 05:41:14;;;;;;;1.27;0.40;;;19.90;53.00;;;;;;5070767;28;20557;-58
2023/10/28 05:43:39;;;;;;;0.70;0.40;;;19.90;53.10;;;;;;5070517;28;20029;-59
2023/10/28 05:46:05;;;;;;;1.73;0.70;;;19.90;53.00;;;;;;5060892;28;20515;-58
2023/10/28 05:48:32;;;;;;;0.95;0.40;;;19.90;53.00;;;;;;5074901;28;20404;-56
2023/10/28 05:50:59;;;;;;;0.65;0.30;;;19.90;53.00;;;;;;5053114;28;20025;-58
2023/10/28 05:53:25;;;;;;;0.93;0.40;;;19.90;53.00;;;;;;5069223;28;20534;-53
2023/10/28 05:55:52;;;;;;;0.63;0.32;;;19.90;53.00;;;;;;5066294;28;20112;-54
2023/10/28 05:58:18;;;;;;;0.88;0.60;;;19.90;53.00;;;;;;5064548;28;20358;-58
2023/10/28 06:00:44;;;;;;;0.70;0.40;;;19.90;53.00;;;;;;5058897;28;20033;-57
2023/10/28 06:03:10;;;;;;;0.35;0.30;;;19.90;53.00;;;;;;5054450;28;20395;-52
2023/10/28 06:05:36;;;;;;;0.30;0.20;;;19.90;53.00;;;;;;5064089;28;20037;-57
2023/10/28 06:08:02;;;;;;;0.55;0.30;;;19.90;53.00;;;;;;5069757;28;20035;-57
2023/10/28 06:10:28;;;;;;;0.77;0.40;;;19.90;53.00;;;;;;5076823;28;20036;-55
2023/10/28 06:12:54;;;;;;;0.75;0.43;;;19.90;53.00;;;;;;5063660;28;20047;-56
2023/10/28 06:15:20;;;;;;;0.60;0.38;;;19.90;53.00;;;;;;5077070;28;20451;-55
2023/10/28 06:17:46;;;;;;;1.45;0.40;;;19.90;53.00;;;;;;5070651;28;20395;-56
2023/10/28 06:20:12;;;;;;;1.13;0.40;;;19.90;52.90;;;;;;5061176;28;20102;-55
2023/10/28 06:22:38;;;;;;;0.77;0.43;;;19.90;53.00;;;;;;5062749;28;20440;-55
2023/10/28 06:25:04;;;;;;;0.45;0.40;;;19.90;53.00;;;;;;5070115;28;20085;-55
2023/10/28 06:27:34;;;;;;;0.57;0.40;;;19.90;52.90;;;;;;5071513;28;20099;-58
2023/10/28 06:30:00;;;;;;;1.10;0.40;;;19.90;53.00;;;;;;5063279;28;20048;-58
2023/10/28 06:32:29;;;;;;;1.23;0.47;;;19.90;53.00;;;;;;5064096;28;20104;-59
2023/10/28 06:34:55;;;;;;;0.98;0.50;;;19.90;53.00;;;;;;5071653;28;20437;-56
2023/10/28 06:37:21;;;;;;;0.85;0.35;;;19.90;53.00;;;;;;5067675;28;20052;-58
2023/10/28 06:39:47;;;;;;;1.13;0.50;;;19.90;53.00;;;;;;5066084;28;20084;-58
2023/10/28 06:42:14;;;;;;;1.30;0.40;;;19.80;53.00;;;;;;5066580;28;20052;-56
2023/10/28 06:44:43;;;;;;;0.32;0.28;;;19.80;53.00;;;;;;5073254;28;20052;-58
2023/10/28 06:47:12;;;;;;;0.93;0.50;;;19.80;53.00;;;;;;5070266;28;20103;-59
2023/10/28 06:49:38;;;;;;;1.35;0.50;;;19.90;53.00;;;;;;5063364;28;20100;-54
2023/10/28 06:52:04;;;;;;;0.50;0.30;;;19.90;53.00;;;;;;5068495;28;20025;-58
2023/10/28 06:54:30;;;;;;;0.77;0.40;;;19.80;53.00;;;;;;5077177;28;20032;-56
2023/10/28 06:56:55;;;;;;;0.68;0.40;;;19.80;53.00;;;;;;5071198;28;20040;-56
2023/10/28 06:59:23;;;;;;;0.82;0.30;;;19.90;53.00;;;;;;5069006;28;20043;-59
2023/10/28 07:01:50;;;;;;;0.55;0.30;;;19.80;53.00;;;;;;5071557;28;20025;-55
2023/10/28 07:04:15;;;;;;;1.23;0.60;;;19.90;53.00;;;;;;5076471;28;20381;-54
2023/10/28 07:06:41;;;;;;;0.73;0.30;;;19.90;53.00;;;;;;5067832;28;20024;-57
2023/10/28 07:09:07;;;;;;;0.70;0.43;;;19.90;53.00;;;;;;5062605;28;20024;-58
2023/10/28 07:11:33;;;;;;;0.65;0.40;;;19.80;53.00;;;;;;5073725;28;20033;-58
2023/10/28 07:13:59;;;;;;;0.93;0.60;;;19.90;53.00;;;;;;5062528;28;20092;-55
2023/10/28 07:16:27;;;;;;;1.55;0.40;;;19.90;53.00;;;;;;5052885;28;21661;-58
2023/10/28 07:18:53;;;;;;;0.80;0.40;;;19.90;53.10;;;;;;5066930;28;20068;-60
2023/10/28 07:21:18;;;;;;;1.40;0.40;;;19.90;53.00;;;;;;5062617;28;20355;-56
2023/10/28 07:23:45;;;;;;;1.38;0.60;;;19.80;53.00;;;;;;5063165;28;20013;-58
2023/10/28 07:26:12;;;;;;;3.40;0.55;;;19.90;53.10;;;;;;5082469;28;20099;-55
2023/10/28 07:28:39;;;;;;;1.73;0.25;;;19.80;53.10;;;;;;5077077;28;20412;-59
2023/10/28 07:31:06;;;;;;;1.25;0.52;;;19.90;53.10;;;;;;5085949;28;20020;-59
2023/10/28 07:33:32;;;;;;;1.80;0.50;;;19.90;53.10;;;;;;5063927;28;20032;-57
2023/10/28 07:36:02;;;;;;;0.82;0.52;;;19.90;53.10;;;;;;5065686;28;20132;-59
2023/10/28 07:38:28;;;;;;;1.70;0.63;;;19.90;53.10;;;;;;5064740;28;20025;-59
2023/10/28 07:40:55;;;;;;;1.77;0.40;;;19.90;53.10;;;;;;5065344;28;20141;-57
2023/10/28 07:43:23;;;;;;;0.88;0.45;;;19.90;53.10;;;;;;5057304;28;20048;-59
2023/10/28 07:45:49;;;;;;;1.85;0.65;;;19.90;53.10;;;;;;5053567;28;20107;-56
2023/10/28 07:48:15;;;;;;;1.23;0.68;;;19.90;53.10;;;;;;5059392;28;20112;-57
2023/10/28 07:50:42;;;;;;;3.55;0.70;;;19.90;53.10;;;;;;5061648;28;20037;-56
2023/10/28 07:53:09;;;;;;;1.55;0.60;;;19.90;53.20;;;;;;5060740;28;20431;-59
2023/10/28 07:55:38;;;;;;;2.67;0.60;;;19.90;53.80;;;;;;5065285;28;20021;-58
2023/10/28 07:58:05;;;;;;;2.90;0.80;;;19.90;53.20;;;;;;5061707;28;20508;-58
2023/10/28 08:00:32;;;;;;;1.38;0.60;;;19.90;53.40;;;;;;5060780;28;20059;-58
2023/10/28 08:02:58;;;;;;;2.25;0.80;;;20.00;53.60;;;;;;5057899;28;20312;-59
2023/10/28 08:05:26;;;;;;;2.35;0.90;;;20.00;53.60;;;;;;5053897;28;20025;-58
2023/10/28 08:07:52;;;;;;;1.65;0.75;;;20.00;53.50;;;;;;5067089;28;20024;-59
2023/10/28 08:10:22;;;;;;;2.53;0.75;;;20.00;53.50;;;;;;5074586;28;20371;-57
2023/10/28 08:12:55;;;;;;;1.20;0.60;;;20.00;53.50;;;;;;5066262;28;20420;-60
2023/10/28 08:15:23;;;;;;;3.08;0.90;;;20.00;53.40;;;;;;5058471;28;20099;-56
2023/10/28 08:17:51;;;;;;;2.83;0.70;;;20.00;53.40;;;;;;5058188;28;20052;-54
2023/10/28 08:20:17;;;;;;;1.08;0.70;;;20.00;53.40;;;;;;5069309;28;20090;-56
2023/10/28 08:22:50;;;;;;;1.13;0.63;;;20.00;53.40;;;;;;5055588;28;20440;-57
2023/10/28 08:25:16;;;;;;;2.10;0.88;;;20.00;53.40;;;;;;5057123;28;20056;-56
2023/10/28 08:27:44;;;;;;;2.13;0.80;;;20.00;53.40;;;;;;5063187;28;20105;-56
2023/10/28 08:30:15;;;;;;;1.33;0.60;;;20.00;53.40;;;;;;5065583;28;20020;-58
2023/10/28 08:32:42;;;;;;;1.48;0.70;;;20.00;53.30;;;;;;5061104;28;20020;-57
2023/10/28 08:35:09;;;;;;;1.65;0.70;;;20.00;53.40;;;;;;5079848;28;20055;-58
2023/10/28 08:37:35;;;;;;;1.13;0.55;;;20.00;53.30;;;;;;5084938;28;20047;-52
2023/10/28 08:40:03;;;;;;;1.25;0.45;;;20.00;53.30;;;;;;5079560;28;20036;-57
2023/10/28 08:42:30;;;;;;;1.52;0.47;;;20.00;53.30;;;;;;5084772;28;20044;-58
2023/10/28 08:45:03;;;;;;;1.65;0.55;;;20.00;53.30;;;;;;5079952;28;20078;-57
2023/10/28 08:47:32;;;;;;;2.13;0.68;;;20.00;53.30;;;;;;5079566;28;20036;-58
2023/10/28 08:50:07;;;;;;;1.75;0.60;;;20.10;53.30;;;;;;5075247;28;20024;-57
2023/10/28 08:52:36;;;;;;;1.45;0.60;;;20.10;53.30;;;;;;5078706;28;20043;-58
2023/10/28 08:55:03;;;;;;;1.50;0.60;;;20.10;53.30;;;;;;5081394;28;20454;-55
2023/10/28 08:57:30;;;;;;;1.05;0.50;;;20.10;53.30;;;;;;5083004;28;20081;-56
2023/10/28 08:59:56;;;;;;;1.02;0.50;;;20.10;53.20;;;;;;5084583;28;20453;-59
2023/10/28 09:02:24;;;;;;;1.00;0.50;;;20.10;53.20;;;;;;5075936;28;20041;-58
2023/10/28 09:04:51;;;;;;;0.88;0.45;;;20.10;53.20;;;;;;5073883;28;20042;-57
2023/10/28 09:07:18;;;;;;;1.65;0.40;;;20.20;53.20;;;;;;5077612;28;20024;-55
2023/10/28 09:09:44;;;;;;;2.28;0.50;;;20.10;53.20;;;;;;5076774;28;20477;-57
2023/10/28 09:12:10;;;;;;;1.52;0.70;;;20.20;53.20;;;;;;5071853;28;20064;-57
2023/10/28 09:14:35;;;;;;;1.38;0.50;;;20.20;53.20;;;;;;5076042;28;20108;-58
2023/10/28 09:17:03;;;;;;;1.10;0.55;;;20.20;53.20;;;;;;5076540;28;20342;-55
2023/10/28 09:19:29;;;;;;;2.00;0.70;;;20.20;53.20;;;;;;5076278;28;20053;-59
2023/10/28 09:21:55;;;;;;;0.75;0.50;;;20.30;53.20;;;;;;5079200;28;20036;-57
2023/10/28 09:24:23;;;;;;;1.42;0.75;;;20.30;53.20;;;;;;5082344;28;20020;-57
2023/10/28 09:26:52;;;;;;;2.90;0.70;;;20.30;53.20;;;;;;5086831;28;20051;-58
2023/10/28 09:29:32;;;;;;;1.08;0.68;;;20.30;53.10;;;;;;5082303;28;20108;-57
2023/10/28 09:32:08;;;;;;;1.75;0.57;;;20.40;53.20;;;;;;5080958;28;20112;-58
2023/10/28 09:34:35;;;;;;;3.22;0.65;;;20.40;53.10;;;;;;5083397;28;20033;-58
2023/10/28 09:37:02;;;;;;;1.33;0.40;;;20.40;53.10;;;;;;5090848;28;20024;-57
2023/10/28 09:39:30;;;;;;;1.85;0.50;;;20.40;53.10;;;;;;5087916;28;20339;-58
2023/10/28 09:41:58;;;;;;;1.67;0.50;;;20.40;53.10;;;;;;5090228;28;20072;-58
2023/10/28 09:44:24;;;;;;;1.17;0.50;;;20.50;53.10;;;;;;5085683;28;20109;-56
2023/10/28 09:47:01;;;;;;;1.95;0.55;;;20.50;53.10;;;;;;5084895;28;20024;-58
2023/10/28 09:49:32;;;;;;;1.30;0.60;;;20.50;53.10;;;;;;5080121;28;20028;-58
2023/10/28 09:52:05;;;;;;;0.60;0.50;;;20.50;53.10;;;;;;5088853;28;20343;-56
2023/10/28 09:54:34;;;;;;;1.40;0.45;;;20.50;53.10;;;;;;5088627;28;20051;-59
2023/10/28 09:57:01;;;;;;;1.00;0.40;;;20.50;53.00;;;;;;5084067;28;20140;-59
2023/10/28 09:59:33;;;;;;;1.48;0.52;;;20.50;53.00;;;;;;5085302;28;20028;-55
2023/10/28 10:02:01;;;;;;;1.00;0.60;;;20.50;53.00;;;;;;5086336;28;20028;-58
2023/10/28 10:04:42;;;;;;;1.55;0.50;;;20.50;53.00;;;;;;5083452;28;20039;-56
2023/10/28 10:07:09;;;;;;;2.08;0.73;;;20.50;53.00;;;;;;5082644;28;20039;-59
2023/10/28 10:09:48;;;;;;;0.98;0.50;;;20.60;53.00;;;;;;5090566;28;20040;-58
2023/10/28 10:12:30;;;;;;;2.83;0.40;;;20.50;53.00;;;;;;5074071;28;20043;-58
2023/10/28 10:14:59;;;;;;;0.65;0.50;;;20.60;53.00;;;;;;5076966;28;20160;-58
2023/10/28 10:18:23;;;;;;;3.42;0.65;;;20.60;53.00;;;;;;5077490;28;20458;-57
2023/10/28 10:20:59;;;;;;;2.03;0.50;;;20.60;52.90;;;;;;5044607;28;20098;-55
2023/10/28 10:23:34;;;;;;;1.02;0.52;;;20.60;53.00;;;;;;5047836;28;20032;-58
2023/10/28 10:26:00;;;;;;;1.67;0.70;;;20.60;53.00;;;;;;5070706;28;20036;-57
2023/10/28 10:28:26;;;;;;;0.98;0.60;;;20.60;53.00;;;;;;5068390;28;20036;-59
2023/10/28 10:30:56;;;;;;;2.13;0.80;;;20.60;53.00;;;;;;5081513;28;20031;-57
2023/10/28 10:33:26;;;;;;;2.00;0.60;;;20.60;52.90;;;;;;5060987;28;20060;-55
2023/10/28 10:35:52;;;;;;;1.77;0.70;;;20.60;53.10;;;;;;5078125;28;20331;-58
2023/10/28 10:38:28;;;;;;;6.15;0.88;;;20.60;53.30;;;;;;5079681;28;20035;-58
2023/10/28 10:40:58;;;;;;;1.55;0.80;;;20.70;53.30;;;;;;5079371;28;20036;-56
2023/10/28 10:43:32;;;;;;;2.67;0.75;;;20.80;53.30;;;;;;5078923;28;20077;-56
2023/10/28 10:45:59;;;;;;;1.58;0.60;;;20.80;53.20;;;;;;5078909;28;20017;-54
2023/10/28 10:48:27;;;;;;;1.73;0.73;;;20.80;53.10;;;;;;5075378;28;20016;-56
2023/10/28 10:50:56;;;;;;;0.88;0.55;;;20.80;53.10;;;;;;5082527;28;20118;-55
2023/10/28 10:53:22;;;;;;;1.83;0.73;;;20.80;53.00;;;;;;5077255;28;20343;-55
2023/10/28 10:55:49;;;;;;;0.85;0.43;;;20.80;52.90;;;;;;5078302;28;20146;-56
2023/10/28 10:58:15;;;;;;;1.40;0.68;;;20.80;52.90;;;;;;5076559;28;20021;-55
2023/10/28 11:00:41;;;;;;;1.13;0.40;;;20.80;52.90;;;;;;5075244;28;20062;-59
2023/10/28 11:03:10;;;;;;;1.63;0.70;;;20.80;52.90;;;;;;5076529;28;20397;-57
2023/10/28 11:05:36;;;;;;;1.15;0.60;;;20.80;52.80;;;;;;5077495;28;20038;-54
2023/10/28 11:08:02;;;;;;;1.40;0.40;;;20.80;52.80;;;;;;5070548;28;21066;-58
2023/10/28 11:10:28;;;;;;;1.15;0.60;;;20.80;52.70;;;;;;5078578;28;20044;-57
2023/10/28 11:12:54;;;;;;;1.23;0.50;;;20.80;52.70;;;;;;5072951;28;20032;-53
2023/10/28 11:15:23;;;;;;;1.13;0.52;;;20.80;52.60;;;;;;5074075;28;20036;-55
2023/10/28 11:17:50;;;;;;;0.95;0.40;;;20.80;52.60;;;;;;5074908;28;20032;-57
2023/10/28 11:20:19;;;;;;;1.13;0.50;;;20.80;52.50;;;;;;5077759;28;20036;-60
2023/10/28 11:22:46;;;;;;;1.38;0.73;;;20.80;52.50;;;;;;5068213;28;20097;-58
2023/10/28 11:25:12;;;;;;;1.63;0.60;;;20.80;52.50;;;;;;5076141;28;20032;-55
2023/10/28 11:27:38;;;;;;;1.30;0.47;;;20.80;52.50;;;;;;5075601;28;20406;-59
2023/10/28 11:30:05;;;;;;;1.88;0.60;;;20.80;52.40;;;;;;5073970;28;20039;-61
2023/10/28 11:32:39;;;;;;;1.52;0.70;;;20.80;52.40;;;;;;5070512;28;20028;-56
2023/10/28 11:35:08;;;;;;;1.90;0.57;;;20.90;53.00;;;;;;5069058;28;20460;-55
2023/10/28 11:37:34;;;;;;;1.05;0.40;;;20.90;52.40;;;;;;5077572;28;20028;-55
2023/10/28 11:40:00;;;;;;;0.80;0.40;;;20.90;52.50;;;;;;5071795;28;20649;-56
2023/10/28 11:42:32;;;;;;;1.42;0.47;;;20.90;52.50;;;;;;5067105;28;20136;-56
2023/10/28 11:44:58;;;;;;;1.17;0.50;;;20.90;52.50;;;;;;5073171;28;21392;-56
2023/10/28 11:47:24;;;;;;;0.65;0.40;;;20.90;52.40;;;;;;5062029;28;20103;-59
2023/10/28 11:49:50;;;;;;;1.23;0.50;;;21.00;52.40;;;;;;5070980;28;20052;-59
2023/10/28 11:52:16;;;;;;;0.38;0.30;;;21.00;52.30;;;;;;5069450;28;20039;-56
2023/10/28 11:54:41;;;;;;;2.95;0.40;;;21.10;52.20;;;;;;5069582;28;20043;-57
2023/10/28 11:57:08;;;;;;;1.10;0.45;;;21.10;52.00;;;;;;5071309;28;20031;-56
2023/10/28 11:59:34;;;;;;;3.05;0.47;;;21.20;51.80;;;;;;5073432;28;20447;-57
2023/10/28 12:02:00;;;;;;;1.17;0.60;;;21.20;51.60;;;;;;5072786;28;20035;-58
2023/10/28 12:04:26;;;;;;;1.05;0.40;;;21.20;51.40;;;;;;5075149;28;20431;-55
2023/10/28 12:06:52;;;;;;;1.23;0.55;;;21.30;51.30;;;;;;5070407;28;20031;-53
2023/10/28 12:09:18;;;;;;;1.92;0.47;;;21.30;51.20;;;;;;5071067;28;20021;-57
2023/10/28 12:11:46;;;;;;;2.42;0.70;;;21.30;51.10;;;;;;5073526;28;20343;-57
2023/10/28 12:14:11;;;;;;;1.73;0.50;;;21.30;50.90;;;;;;5074212;28;20048;-56
2023/10/28 12:16:38;;;;;;;1.73;0.60;;;21.30;50.80;;;;;;5073084;28;20157;-56
2023/10/28 12:19:07;;;;;;;1.30;0.63;;;21.30;50.70;;;;;;5071461;28;20039;-58
2023/10/28 12:21:37;;;;;;;2.38;0.70;;;21.30;50.70;;;;;;5077091;28;20040;-55
2023/10/28 12:24:03;;;;;;;2.40;0.50;;;21.30;50.60;;;;;;5055569;28;20338;-58
2023/10/28 12:26:29;;;;;;;2.08;0.55;;;21.30;50.60;;;;;;5072095;28;20111;-57
2023/10/28 12:28:56;;;;;;;1.85;0.50;;;21.20;50.40;;;;;;5073190;28;20115;-58
2023/10/28 12:31:23;;;;;;;0.82;0.40;;;21.30;50.40;;;;;;5074498;28;20039;-57
2023/10/28 12:33:49;;;;;;;1.13;0.50;;;21.30;50.40;;;;;;5074108;28;20051;-54
2023/10/28 12:36:20;;;;;;;1.15;0.47;;;21.30;50.30;;;;;;5071928;28;20049;-55
2023/10/28 12:38:45;;;;;;;1.30;0.50;;;21.20;50.20;;;;;;5072241;28;20020;-56
2023/10/28 12:41:12;;;;;;;1.60;0.63;;;21.30;50.20;;;;;;5072576;28;20032;-58
2023/10/28 12:43:39;;;;;;;1.60;0.50;;;21.30;50.10;;;;;;5073389;28;20359;-55
2023/10/28 12:46:06;;;;;;;1.55;0.60;;;21.20;50.00;;;;;;5073991;28;20040;-60
2023/10/28 12:48:35;;;;;;;1.20;0.63;;;21.20;49.90;;;;;;5089559;28;20089;-58